Alplaus, NY

4:31 AM EDT on April 02, 2015 (GMT -0400)
Daily Gazette | | Change Station
CLOSE
Current Station
Personal Weather Station
Location: Schenectady, NY
Elevation: 295 ft
Nearby Weather Stations

Elev 295 ft 42.83 °N, 73.92 °W | Updated 1 second ago

Partly Cloudy
Partly Cloudy
25.0 °F
Feels Like 25 °F
N
0.0
Wind Variable Wind from NNE
Gusts 2.9 mph

Today
High -- | Low -- °F
--% Chance of Precip.
Yesterday
High -- | Low -- °F
Precip. -- in
6:36 AM 7:22 PM
Waxing Gibbous, 96% visible
Pressure 30.19 in
Visibility 10.0 miles
Clouds Scattered Clouds 25000 ft
Windchill 25 °F
Dew Point 14 °F
Humidity 62%
Rainfall 0.00 in
Snow Depth Not available.
UV 0 out of 12
Pollen 4.50 out of 12
Air Quality Not available.
Flu Activity Not available.
METAR KALB 020751Z 00000KT 10SM SCT250 M02/M13 A3019 RMK AO2 SLP224 T10171128

More Conditions Fewer Conditions

Pressure 30.19 in
Visibility 10.0 miles
Clouds Scattered Clouds 25000 ft
Windchill 25 °F
Dew Point 14 °F
Humidity 62%
Rainfall 0.00 in
Snow Depth Not available.
UV 0 out of 12
Pollen 4.50 out of 12
Air Quality Not available.
Flu Activity Not available.
METAR KALB 020751Z 00000KT 10SM SCT250 M02/M13 A3019 RMK AO2 SLP224 T10171128

More Conditions Fewer Conditions

10-Day Weather Forecast

Almanac

Astronomy

Apr. 02, 2015 Rise Set
Actual Time
Civil Twilight
Nautical Twilight
Astronomical Twilight
Moon
Length of Visible Light
Length of Day
Tomorrow will be .
, % of the Moon is Illuminated

Today's Extremes

State Highs State Lows

Community

WunderPhotos

Upload Photos

1,810,207 photos uploaded!

WunderBlogs® & News

Nearby

Air Quality

  Air Quality AQ Index Pollutant
Not available.

Snow Depth

Station Depth Elevation

Earthquake Activity

City Distance Mag. Time & Date
Minimum magnitude displayed is 2.5.

Coastal Water Temperatures

Place Temperature

Stations

Nearby Weather Stations

Station Location Temp. Windchill Dew Point Humidity Wind Precip. Elev Updated Type